Time;durP1;ratioP1;P1;durP2;ratioP2;P2;SDS_P1;SDS_P2;PMS_P1;PMS_P2;Temp;Humidity;BMP_temperature;BMP_pressure;BME280_temperature;BME280_humidity;BME280_pressure;Samples;Min_cycle;Max_cycle;Signal;HPM_P1;HPM_P2
2021/05/14 00:02:10;;;;;;;;;;;21.50;49.70;;;;;;4763751;30;20292;-80
2021/05/14 00:04:37;;;;;;;;;;;21.50;49.70;;;;;;4762400;30;19944;-80
2021/05/14 00:07:06;;;;;;;;;;;21.50;49.70;;;;;;4764001;30;19930;-80
2021/05/14 00:09:34;;;;;;;;;;;21.50;49.70;;;;;;4758114;30;19933;-80
2021/05/14 00:12:01;;;;;;;;;;;21.50;49.70;;;;;;4755407;30;19944;-80
2021/05/14 00:14:28;;;;;;;;;;;21.50;49.70;;;;;;4758049;30;19934;-80
2021/05/14 00:16:55;;;;;;;;;;;21.50;49.70;;;;;;4754329;30;20415;-80
2021/05/14 00:19:25;;;;;;;;;;;21.40;49.70;;;;;;4759619;30;19930;-83
2021/05/14 00:21:51;;;;;;;;;;;21.50;49.70;;;;;;4761080;30;19930;-82
2021/05/14 00:24:19;;;;;;;;;;;21.40;49.70;;;;;;4763715;30;19930;-83
2021/05/14 00:26:46;;;;;;;;;;;21.40;49.60;;;;;;4763604;30;19998;-83
2021/05/14 00:29:13;;;;;;;;;;;21.40;49.70;;;;;;4752090;30;19930;-81
2021/05/14 00:31:40;;;;;;;;;;;21.40;49.70;;;;;;4755795;30;20334;-81
2021/05/14 00:34:06;;;;;;;;;;;21.40;49.70;;;;;;4761834;30;19937;-81
2021/05/14 00:36:33;;;;;;;;;;;21.40;49.70;;;;;;4764288;30;19969;-83
2021/05/14 00:39:00;;;;;;;;;;;21.40;49.80;;;;;;4763964;30;20303;-83
2021/05/14 00:41:26;;;;;;;;;;;21.30;49.70;;;;;;4744922;30;19936;-83
2021/05/14 00:43:55;;;;;;;;;;;21.40;49.70;;;;;;4762546;30;19936;-83
2021/05/14 00:46:24;;;;;;;;;;;21.40;49.70;;;;;;4742548;30;20024;-83
2021/05/14 00:48:50;;;;;;;;;;;21.40;49.70;;;;;;4763704;30;19934;-83
2021/05/14 00:51:17;;;;;;;;;;;21.40;49.80;;;;;;4761731;30;19989;-83
2021/05/14 00:53:44;;;;;;;;;;;21.40;49.70;;;;;;4747429;30;19929;-82
2021/05/14 00:56:13;;;;;;;;;;;21.40;49.60;;;;;;4747495;30;19991;-82
2021/05/14 00:58:41;;;;;;;;;;;21.30;49.60;;;;;;4740716;30;19950;-83
2021/05/14 01:01:08;;;;;;;;;;;21.30;49.60;;;;;;4759000;30;19930;-82
2021/05/14 01:03:35;;;;;;;;;;;21.30;49.50;;;;;;4764002;30;19965;-82
2021/05/14 01:06:01;;;;;;;;;;;21.30;49.50;;;;;;4764260;30;20191;-82
2021/05/14 01:08:29;;;;;;;;;;;21.30;49.50;;;;;;4747023;30;19934;-82
2021/05/14 01:10:56;;;;;;;;;;;21.30;49.50;;;;;;4760141;30;19930;-82
2021/05/14 01:13:25;;;;;;;;;;;21.30;49.50;;;;;;4760373;30;20026;-82
2021/05/14 01:15:52;;;;;;;;;;;21.30;49.50;;;;;;4762063;30;20346;-82
2021/05/14 01:18:21;;;;;;;;;;;21.30;49.50;;;;;;4755458;30;19938;-83
2021/05/14 01:20:48;;;;;;;;;;;21.30;49.50;;;;;;4762665;30;19937;-82
2021/05/14 01:23:15;;;;;;;;;;;21.30;49.50;;;;;;4743527;30;19929;-82
2021/05/14 01:25:42;;;;;;;;;;;21.20;49.50;;;;;;4771483;30;19933;-82
2021/05/14 01:28:09;;;;;;;;;;;21.30;49.50;;;;;;4761712;30;19930;-83
2021/05/14 01:30:35;;;;;;;;;;;21.30;49.50;;;;;;4761256;30;19930;-83
2021/05/14 01:33:02;;;;;;;;;;;21.30;49.50;;;;;;4760684;29;20502;-82
2021/05/14 01:35:34;;;;;;;;;;;21.20;49.50;;;;;;4742475;30;19938;-82
2021/05/14 01:38:01;;;;;;;;;;;21.20;49.50;;;;;;4755485;30;19935;-80
2021/05/14 01:40:27;;;;;;;;;;;21.20;49.40;;;;;;4762364;30;19930;-80
2021/05/14 01:42:54;;;;;;;;;;;21.20;49.40;;;;;;4759708;30;19929;-80
2021/05/14 01:45:23;;;;;;;;;;;21.20;49.40;;;;;;4752444;30;20006;-80
2021/05/14 01:47:50;;;;;;;;;;;21.20;49.50;;;;;;4759523;30;19987;-79
2021/05/14 01:50:18;;;;;;;;;;;21.10;49.40;;;;;;4742948;30;20650;-80
2021/05/14 01:52:45;;;;;;;;;;;21.20;49.40;;;;;;4757921;30;19930;-81
2021/05/14 01:55:13;;;;;;;;;;;21.20;49.50;;;;;;4746967;30;19930;-80
2021/05/14 01:57:39;;;;;;;;;;;21.20;49.40;;;;;;4760098;30;19929;-81
2021/05/14 02:00:07;;;;;;;;;;;21.10;49.40;;;;;;4762736;30;19941;-81
2021/05/14 02:02:34;;;;;;;;;;;21.10;49.40;;;;;;4759488;30;19930;-82
2021/05/14 02:05:00;;;;;;;;;;;21.20;49.40;;;;;;4747948;30;19940;-82
2021/05/14 02:07:27;;;;;;;;;;;21.20;49.40;;;;;;4740183;30;19930;-82
2021/05/14 02:09:54;;;;;;;;;;;21.10;49.40;;;;;;4752086;30;19960;-82
2021/05/14 02:12:21;;;;;;;;;;;21.10;49.40;;;;;;4745357;30;19930;-82
2021/05/14 02:14:47;;;;;;;;;;;21.10;49.40;;;;;;4754941;30;19936;-81
2021/05/14 02:17:14;;;;;;;;;;;21.10;49.30;;;;;;4762113;30;19937;-82
2021/05/14 02:19:41;;;;;;;;;;;21.10;49.30;;;;;;4744195;30;19937;-81
2021/05/14 02:22:08;;;;;;;;;;;21.10;49.30;;;;;;4766712;30;20315;-82
2021/05/14 02:24:35;;;;;;;;;;;21.20;49.40;;;;;;4761625;30;19937;-83
2021/05/14 02:27:03;;;;;;;;;;;21.10;49.40;;;;;;4755621;30;19937;-83
2021/05/14 02:29:34;;;;;;;;;;;21.10;49.40;;;;;;4757869;30;19941;-81
2021/05/14 02:32:02;;;;;;;;;;;21.10;49.40;;;;;;4762652;30;19937;-82
2021/05/14 02:34:39;;;;;;;;;;;21.10;49.40;;;;;;4757620;30;19930;-83
2021/05/14 02:37:06;;;;;;;;;;;21.10;49.40;;;;;;4749002;30;19934;-83
2021/05/14 02:39:32;;;;;;;;;;;21.00;49.30;;;;;;4743207;30;20432;-83
2021/05/14 02:41:59;;;;;;;;;;;21.10;49.40;;;;;;4764911;30;19930;-83
2021/05/14 02:44:27;;;;;;;;;;;21.00;49.30;;;;;;4762219;30;19976;-83
2021/05/14 02:46:54;;;;;;;;;;;21.00;49.30;;;;;;4732003;30;19930;-82
2021/05/14 02:49:21;;;;;;;;;;;21.00;49.30;;;;;;4760764;30;19930;-82
2021/05/14 02:51:48;;;;;;;;;;;21.00;49.40;;;;;;4754939;30;19937;-81
2021/05/14 02:54:17;;;;;;;;;;;21.00;49.30;;;;;;4759380;30;19994;-80
2021/05/14 02:56:45;;;;;;;;;;;21.00;49.30;;;;;;4761717;30;19937;-80
2021/05/14 02:59:11;;;;;;;;;;;21.00;49.30;;;;;;4760466;30;19937;-80
2021/05/14 03:01:38;;;;;;;;;;;21.00;49.30;;;;;;4760344;30;19949;-80
2021/05/14 03:04:05;;;;;;;;;;;21.00;49.20;;;;;;4760975;30;19938;-81
2021/05/14 03:06:32;;;;;;;;;;;21.00;49.20;;;;;;4755139;30;19937;-80
2021/05/14 03:08:58;;;;;;;;;;;21.00;49.30;;;;;;4753458;30;19930;-80
2021/05/14 03:11:25;;;;;;;;;;;21.00;49.30;;;;;;4763388;30;20368;-80
2021/05/14 03:13:52;;;;;;;;;;;21.00;49.30;;;;;;4750020;30;19930;-80
2021/05/14 03:16:21;;;;;;;;;;;20.90;49.20;;;;;;4762370;30;19938;-80
2021/05/14 03:18:48;;;;;;;;;;;21.00;49.30;;;;;;4764610;30;20323;-80
2021/05/14 03:21:15;;;;;;;;;;;21.00;49.30;;;;;;4761648;30;19937;-80
2021/05/14 03:23:42;;;;;;;;;;;21.00;49.30;;;;;;4768431;30;20287;-82
2021/05/14 03:26:11;;;;;;;;;;;20.90;49.30;;;;;;4749587;30;19937;-82
2021/05/14 03:28:38;;;;;;;;;;;20.90;49.20;;;;;;4751130;30;20149;-82
2021/05/14 03:31:05;;;;;;;;;;;20.90;49.20;;;;;;4758460;30;20318;-81
2021/05/14 03:33:32;;;;;;;;;;;20.90;49.10;;;;;;4739688;30;19930;-81
2021/05/14 03:36:01;;;;;;;;;;;20.90;49.10;;;;;;4740203;30;20411;-80
2021/05/14 03:38:32;;;;;;;;;;;20.90;49.10;;;;;;4746116;30;20829;-80
2021/05/14 03:41:16;;;;;;;;;;;20.90;49.10;;;;;;4748758;30;19947;-81
2021/05/14 03:43:43;;;;;;;;;;;20.90;49.00;;;;;;4763676;30;19934;-81
2021/05/14 03:46:10;;;;;;;;;;;20.90;49.00;;;;;;4758580;30;19937;-81
2021/05/14 03:48:36;;;;;;;;;;;20.90;49.10;;;;;;4761795;30;19934;-81
2021/05/14 03:51:03;;;;;;;;;;;20.90;49.00;;;;;;4767520;30;19930;-82
2021/05/14 03:53:30;;;;;;;;;;;20.80;48.90;;;;;;4764377;30;19944;-82
2021/05/14 03:56:02;;;;;;;;;;;20.90;48.90;;;;;;4753987;30;19938;-82
2021/05/14 03:58:29;;;;;;;;;;;20.80;48.90;;;;;;4762041;30;20125;-81
2021/05/14 04:00:56;;;;;;;;;;;20.80;48.90;;;;;;4759770;30;20376;-81
2021/05/14 04:03:24;;;;;;;;;;;20.80;48.90;;;;;;4759981;30;19930;-82
2021/05/14 04:05:50;;;;;;;;;;;20.80;48.90;;;;;;4763135;30;19929;-81
2021/05/14 04:08:18;;;;;;;;;;;20.80;48.80;;;;;;4759426;30;19934;-81
2021/05/14 04:16:20;;;;;;;;;;;20.80;48.70;;;;;;4755441;30;20496;-81
2021/05/14 04:18:49;;;;;;;;;;;20.80;48.60;;;;;;4757318;30;20530;-80
2021/05/14 04:21:16;;;;;;;;;;;20.80;48.60;;;;;;4761093;30;19941;-81
2021/05/14 04:23:43;;;;;;;;;;;20.80;48.60;;;;;;4761189;30;19938;-81
2021/05/14 04:26:12;;;;;;;;;;;20.80;48.50;;;;;;4761947;30;20304;-80
2021/05/14 04:28:43;;;;;;;;;;;20.70;48.50;;;;;;4747307;30;20206;-81
2021/05/14 04:31:10;;;;;;;;;;;20.80;48.50;;;;;;4760668;30;19929;-81
2021/05/14 04:33:38;;;;;;;;;;;20.70;48.40;;;;;;4764660;30;19930;-81
2021/05/14 04:36:05;;;;;;;;;;;20.70;48.40;;;;;;4756024;30;20345;-81
2021/05/14 04:38:32;;;;;;;;;;;20.70;48.30;;;;;;4761640;30;19937;-79
2021/05/14 04:40:58;;;;;;;;;;;20.70;48.40;;;;;;4758789;30;19941;-84
2021/05/14 04:43:25;;;;;;;;;;;20.70;48.50;;;;;;4746951;30;19930;-82
2021/05/14 04:45:52;;;;;;;;;;;20.70;48.80;;;;;;4744430;30;19938;-82
2021/05/14 04:48:18;;;;;;;;;;;20.80;48.70;;;;;;4734778;30;19930;-84
2021/05/14 04:50:45;;;;;;;;;;;20.80;48.70;;;;;;4757228;30;19929;-82
2021/05/14 04:53:14;;;;;;;;;;;20.80;48.60;;;;;;4766499;30;19937;-83
2021/05/14 04:55:41;;;;;;;;;;;20.90;48.40;;;;;;4760086;30;20394;-80
2021/05/14 04:58:10;;;;;;;;;;;20.90;48.30;;;;;;4762691;30;20384;-82
2021/05/14 05:00:36;;;;;;;;;;;20.90;48.70;;;;;;4752835;30;19945;-83
2021/05/14 05:03:05;;;;;;;;;;;21.00;48.90;;;;;;4745001;30;19945;-84
2021/05/14 05:05:32;;;;;;;;;;;21.00;48.30;;;;;;4736550;30;19930;-83
2021/05/14 05:07:59;;;;;;;;;;;21.00;48.10;;;;;;4743263;30;20041;-82
2021/05/14 05:10:25;;;;;;;;;;;21.00;48.00;;;;;;4741539;30;20173;-81
2021/05/14 05:12:55;;;;;;;;;;;21.10;47.90;;;;;;4737783;30;19957;-82
2021/05/14 05:15:22;;;;;;;;;;;21.10;47.90;;;;;;4743486;30;20250;-81
2021/05/14 05:17:49;;;;;;;;;;;21.10;47.90;;;;;;4728847;30;20304;-82
2021/05/14 05:20:15;;;;;;;;;;;21.10;47.80;;;;;;4732150;30;20316;-83
2021/05/14 05:22:42;;;;;;;;;;;21.10;47.80;;;;;;4745133;30;20384;-81
2021/05/14 05:25:09;;;;;;;;;;;21.10;47.80;;;;;;4742696;30;19934;-81
2021/05/14 05:27:36;;;;;;;;;;;21.10;47.70;;;;;;4739623;30;20448;-81
2021/05/14 05:30:03;;;;;;;;;;;21.10;47.80;;;;;;4739153;30;20398;-80
2021/05/14 05:32:30;;;;;;;;;;;21.10;47.80;;;;;;4729955;30;19942;-80
2021/05/14 05:34:57;;;;;;;;;;;21.10;47.80;;;;;;4738490;30;19931;-80
2021/05/14 05:37:24;;;;;;;;;;;21.10;47.90;;;;;;4729690;30;19945;-80
2021/05/14 05:39:51;;;;;;;;;;;21.10;48.00;;;;;;4738376;30;19937;-80
2021/05/14 05:42:18;;;;;;;;;;;21.10;48.10;;;;;;4745830;30;21815;-80
2021/05/14 05:44:44;;;;;;;;;;;21.10;48.10;;;;;;4738129;30;19930;-80
2021/05/14 05:47:11;;;;;;;;;;;21.10;48.10;;;;;;4744362;30;19939;-79
2021/05/14 05:49:38;;;;;;;;;;;21.00;48.20;;;;;;4738391;30;19938;-82
2021/05/14 05:52:05;;;;;;;;;;;21.00;48.50;;;;;;4744066;30;20304;-80
2021/05/14 05:54:31;;;;;;;;;;;21.00;48.40;;;;;;4743374;30;20175;-82
2021/05/14 05:57:00;;;;;;;;;;;21.10;48.40;;;;;;4747502;30;19933;-79
2021/05/14 05:59:28;;;;;;;;;;;21.10;48.40;;;;;;4742070;30;19930;-79
2021/05/14 06:01:56;;;;;;;;;;;21.10;48.50;;;;;;4760659;30;19930;-79
2021/05/14 06:04:24;;;;;;;;;;;21.10;48.40;;;;;;4754591;30;19941;-80
2021/05/14 06:06:51;;;;;;;;;;;21.20;48.50;;;;;;4761383;30;20003;-81
2021/05/14 06:09:17;;;;;;;;;;;21.20;48.40;;;;;;4743082;30;20528;-81
2021/05/14 06:11:44;;;;;;;;;;;21.20;48.40;;;;;;4740953;30;20431;-81
2021/05/14 06:14:11;;;;;;;;;;;21.20;48.40;;;;;;4746941;30;19963;-79
2021/05/14 06:16:37;;;;;;;;;;;21.20;48.30;;;;;;4760450;30;19938;-79
2021/05/14 06:21:48;;;;;;;;;;;21.30;48.20;;;;;;4754719;30;20169;-78
2021/05/14 06:24:15;;;;;;;;;;;21.30;48.20;;;;;;4760374;30;20403;-77
2021/05/14 06:26:42;;;;;;;;;;;21.30;48.20;;;;;;4753532;30;19937;-77
2021/05/14 06:29:09;;;;;;;;;;;21.30;48.20;;;;;;4757731;30;19930;-77
2021/05/14 06:31:36;;;;;;;;;;;21.30;48.20;;;;;;4758064;30;19937;-77
2021/05/14 06:34:03;;;;;;;;;;;21.30;48.30;;;;;;4758773;30;19937;-80
2021/05/14 06:36:30;;;;;;;;;;;21.40;48.30;;;;;;4757614;30;20446;-80
2021/05/14 06:38:57;;;;;;;;;;;21.40;48.30;;;;;;4753047;30;19952;-82
2021/05/14 06:41:23;;;;;;;;;;;21.40;48.30;;;;;;4762590;30;19929;-79
2021/05/14 06:43:50;;;;;;;;;;;21.40;48.30;;;;;;4766093;30;20202;-81
2021/05/14 06:46:18;;;;;;;;;;;21.40;48.30;;;;;;4761032;30;19933;-81
2021/05/14 06:48:46;;;;;;;;;;;21.40;48.20;;;;;;4761721;30;19969;-81
2021/05/14 06:51:13;;;;;;;;;;;21.40;48.50;;;;;;4758016;30;19937;-80
2021/05/14 06:53:40;;;;;;;;;;;21.50;48.60;;;;;;4747253;30;20019;-83
2021/05/14 06:56:07;;;;;;;;;;;21.50;48.60;;;;;;4744779;30;20025;-81
2021/05/14 06:58:34;;;;;;;;;;;21.50;48.50;;;;;;4744091;30;19934;-81
2021/05/14 07:01:00;;;;;;;;;;;21.50;48.40;;;;;;4749461;30;19938;-80
2021/05/14 07:03:29;;;;;;;;;;;21.60;48.30;;;;;;4743319;30;19934;-80
2021/05/14 07:05:56;;;;;;;;;;;21.60;48.30;;;;;;4726099;30;20392;-79
2021/05/14 07:08:23;;;;;;;;;;;21.60;48.10;;;;;;4743924;30;19934;-78
2021/05/14 07:10:50;;;;;;;;;;;21.60;48.10;;;;;;4744162;30;19931;-77
2021/05/14 07:13:17;;;;;;;;;;;21.70;48.00;;;;;;4743915;30;20356;-78
2021/05/14 07:15:44;;;;;;;;;;;21.60;47.80;;;;;;4743874;30;20281;-78
2021/05/14 07:18:10;;;;;;;;;;;21.60;47.70;;;;;;4743042;30;19930;-78
2021/05/14 07:20:37;;;;;;;;;;;21.60;47.70;;;;;;4743781;30;19934;-77
2021/05/14 07:23:04;;;;;;;;;;;21.60;47.70;;;;;;4728555;30;19972;-78
2021/05/14 07:25:31;;;;;;;;;;;21.50;47.60;;;;;;4726230;30;19937;-78
2021/05/14 07:27:58;;;;;;;;;;;21.60;47.70;;;;;;4740738;30;19934;-78
2021/05/14 07:30:24;;;;;;;;;;;21.50;47.60;;;;;;4742656;30;20055;-78
2021/05/14 07:32:52;;;;;;;;;;;21.50;47.60;;;;;;4727160;30;19940;-79
2021/05/14 07:35:19;;;;;;;;;;;21.50;47.60;;;;;;4735862;30;19991;-83
2021/05/14 07:38:05;;;;;;;;;;;21.50;47.70;;;;;;4731553;30;20075;-80
2021/05/14 07:40:32;;;;;;;;;;;21.50;48.50;;;;;;4741369;30;20663;-80
2021/05/14 07:42:59;;;;;;;;;;;21.50;48.90;;;;;;4743449;30;19938;-80
2021/05/14 07:45:26;;;;;;;;;;;21.40;48.90;;;;;;4741699;30;19930;-80
2021/05/14 07:48:01;;;;;;;;;;;21.40;48.80;;;;;;4745355;30;20384;-83
2021/05/14 07:50:28;;;;;;;;;;;21.40;48.60;;;;;;4744310;30;20600;-81
2021/05/14 07:52:56;;;;;;;;;;;21.40;48.50;;;;;;4741929;30;19938;-82
2021/05/14 07:55:23;;;;;;;;;;;21.40;48.40;;;;;;4745246;30;19942;-81
2021/05/14 07:57:49;;;;;;;;;;;21.40;48.30;;;;;;4746977;30;19942;-81
2021/05/14 08:00:16;;;;;;;;;;;21.40;48.30;;;;;;4747675;30;19937;-80
2021/05/14 08:02:43;;;;;;;;;;;21.40;48.30;;;;;;4763490;30;19934;-81
2021/05/14 08:05:10;;;;;;;;;;;21.40;48.20;;;;;;4759097;30;19937;-81
2021/05/14 08:07:37;;;;;;;;;;;21.40;48.20;;;;;;4762214;30;19930;-83
2021/05/14 08:10:03;;;;;;;;;;;21.40;48.20;;;;;;4751782;30;19945;-89
2021/05/14 08:12:50;;;;;;;;;;;21.30;48.70;;;;;;4743758;30;20306;-88
2021/05/14 08:15:19;;;;;;;;;;;21.40;48.50;;;;;;4758374;30;19930;-87
2021/05/14 08:17:49;;;;;;;;;;;21.40;48.50;;;;;;4756813;30;19938;-82
2021/05/14 08:20:16;;;;;;;;;;;21.50;48.50;;;;;;4759423;30;20380;-85
2021/05/14 08:22:43;;;;;;;;;;;21.40;48.30;;;;;;4742517;30;19938;-86
2021/05/14 08:25:10;;;;;;;;;;;21.50;48.10;;;;;;4756825;30;20391;-85
2021/05/14 08:27:40;;;;;;;;;;;21.50;48.20;;;;;;4758489;30;19929;-87
2021/05/14 08:30:07;;;;;;;;;;;21.50;48.50;;;;;;4758443;30;19929;-88
2021/05/14 08:32:34;;;;;;;;;;;21.50;48.50;;;;;;4742501;30;19930;-88
2021/05/14 08:35:01;;;;;;;;;;;21.50;48.40;;;;;;4739336;30;19939;-85
2021/05/14 08:37:28;;;;;;;;;;;21.50;48.30;;;;;;4739411;30;19941;-86
2021/05/14 08:39:54;;;;;;;;;;;21.50;48.40;;;;;;4753840;30;19941;-85
2021/05/14 08:42:21;;;;;;;;;;;21.50;49.00;;;;;;4759630;30;20114;-82
2021/05/14 08:44:48;;;;;;;;;;;21.60;50.30;;;;;;4742065;30;21997;-83
2021/05/14 08:47:15;;;;;;;;;;;21.60;49.90;;;;;;4752568;30;20311;-83
2021/05/14 08:49:45;;;;;;;;;;;21.60;49.40;;;;;;4755816;30;19929;-84
2021/05/14 08:52:12;;;;;;;;;;;21.60;49.00;;;;;;4756662;30;19941;-84
2021/05/14 08:54:43;;;;;;;;;;;21.60;48.80;;;;;;4742360;30;19941;-83
2021/05/14 08:57:10;;;;;;;;;;;21.70;48.60;;;;;;4759228;30;20351;-84
2021/05/14 08:59:37;;;;;;;;;;;21.60;47.70;;;;;;4757127;30;19956;-83
2021/05/14 09:02:04;;;;;;;;;;;21.70;47.30;;;;;;4744046;30;19930;-84
2021/05/14 09:04:51;;;;;;;;;;;21.70;47.40;;;;;;4743456;30;19930;-82
2021/05/14 09:07:19;;;;;;;;;;;21.60;46.80;;;;;;4740222;30;19998;-79
2021/05/14 09:10:05;;;;;;;;;;;21.70;48.60;;;;;;4744646;30;20310;-83
2021/05/14 09:12:35;;;;;;;;;;;21.70;48.90;;;;;;4726643;30;20175;-79
2021/05/14 09:15:22;;;;;;;;;;;21.70;48.80;;;;;;4742626;30;20050;-82
2021/05/14 09:18:09;;;;;;;;;;;21.70;48.70;;;;;;4739162;30;21441;-80
2021/05/14 09:20:37;;;;;;;;;;;21.70;48.70;;;;;;4729465;30;20353;-80
2021/05/14 09:23:16;;;;;;;;;;;21.70;48.60;;;;;;4740390;30;20311;-82
2021/05/14 09:25:57;;;;;;;;;;;21.70;48.40;;;;;;4745604;30;19941;-83
2021/05/14 09:28:24;;;;;;;;;;;21.70;48.70;;;;;;4742408;30;19938;-81
2021/05/14 09:31:21;;;;;;;;;;;21.80;48.80;;;;;;4740056;30;19930;-80
2021/05/14 09:33:47;;;;;;;;;;;21.90;48.60;;;;;;4709994;30;22209;-81
2021/05/14 09:36:18;;;;;;;;;;;22.00;48.70;;;;;;4741280;30;19930;-80
2021/05/14 09:38:53;;;;;;;;;;;22.00;48.30;;;;;;4743555;30;19945;-81
2021/05/14 09:41:38;;;;;;;;;;;22.00;48.10;;;;;;4742396;30;20735;-81
2021/05/14 09:44:08;;;;;;;;;;;22.10;48.20;;;;;;4730478;30;20650;-83
2021/05/14 09:46:41;;;;;;;;;;;22.10;46.80;;;;;;4739101;30;19930;-81
2021/05/14 09:49:09;;;;;;;;;;;22.10;47.90;;;;;;4733255;30;19938;-83
2021/05/14 09:51:49;;;;;;;;;;;22.20;47.90;;;;;;4726142;30;19918;-84
2021/05/14 09:54:23;;;;;;;;;;;22.20;46.60;;;;;;4725561;30;19992;-81
2021/05/14 09:57:30;;;;;;;;;;;22.20;47.80;;;;;;4746022;30;20917;-85
2021/05/14 09:59:58;;;;;;;;;;;22.20;47.90;;;;;;4724091;30;21213;-82
2021/05/14 10:02:29;;;;;;;;;;;22.30;47.60;;;;;;4752868;30;19942;-83
2021/05/14 10:04:57;;;;;;;;;;;22.30;47.20;;;;;;4759820;30;19929;-83
2021/05/14 10:07:24;;;;;;;;;;;22.30;47.70;;;;;;4750600;30;19934;-85
2021/05/14 10:09:52;;;;;;;;;;;22.30;47.30;;;;;;4740894;30;20129;-81
2021/05/14 10:12:21;;;;;;;;;;;22.40;47.50;;;;;;4741902;30;20123;-84
2021/05/14 10:14:49;;;;;;;;;;;22.40;47.70;;;;;;4755573;30;19930;-84
2021/05/14 10:17:15;;;;;;;;;;;22.50;47.80;;;;;;4762627;30;19937;-84
2021/05/14 10:19:43;;;;;;;;;;;22.50;47.70;;;;;;4763481;30;19949;-80
2021/05/14 10:22:10;;;;;;;;;;;22.50;47.50;;;;;;4765024;30;20303;-83
2021/05/14 10:25:00;;;;;;;;;;;22.50;46.80;;;;;;4764510;30;19938;-84
2021/05/14 10:27:28;;;;;;;;;;;22.40;46.10;;;;;;4757561;30;19930;-84
2021/05/14 10:29:59;;;;;;;;;;;22.40;46.10;;;;;;4764932;30;19930;-84
2021/05/14 10:32:44;;;;;;;;;;;22.40;46.40;;;;;;4771044;30;19991;-85
2021/05/14 10:35:13;;;;;;;;;;;22.40;46.80;;;;;;4764802;30;20036;-84
2021/05/14 10:38:01;;;;;;;;;;;22.50;45.70;;;;;;4754884;30;19941;-84
2021/05/14 10:40:27;;;;;;;;;;;22.50;46.90;;;;;;4744804;30;20560;-84
2021/05/14 10:42:55;;;;;;;;;;;22.40;47.00;;;;;;4744605;30;19936;-84
2021/05/14 10:45:41;;;;;;;;;;;22.40;46.70;;;;;;4769304;30;19930;-83
2021/05/14 10:48:18;;;;;;;;;;;22.40;46.50;;;;;;4737638;30;19938;-85
2021/05/14 10:50:46;;;;;;;;;;;22.40;46.20;;;;;;4758776;30;19940;-84
2021/05/14 10:53:28;;;;;;;;;;;22.30;46.70;;;;;;4746388;30;19945;-83
2021/05/14 10:56:10;;;;;;;;;;;22.30;45.80;;;;;;4765531;30;20135;-84
2021/05/14 10:58:46;;;;;;;;;;;22.30;46.00;;;;;;4738092;30;19970;-84
2021/05/14 11:01:27;;;;;;;;;;;22.30;46.10;;;;;;4765617;30;19945;-82
2021/05/14 11:03:54;;;;;;;;;;;22.40;46.40;;;;;;4756466;30;20403;-83
2021/05/14 11:06:22;;;;;;;;;;;22.40;45.90;;;;;;4764370;30;20302;-79
2021/05/14 11:08:59;;;;;;;;;;;22.50;46.60;;;;;;4764015;30;20852;-82
2021/05/14 11:11:54;;;;;;;;;;;22.50;46.50;;;;;;4751040;30;20543;-85
2021/05/14 11:14:22;;;;;;;;;;;22.60;46.50;;;;;;4748988;30;21532;-82
2021/05/14 11:16:50;;;;;;;;;;;22.60;46.80;;;;;;4765088;30;20245;-79
2021/05/14 11:19:19;;;;;;;;;;;22.60;46.40;;;;;;4743751;30;19945;-80
2021/05/14 11:22:05;;;;;;;;;;;22.70;46.00;;;;;;4763013;30;19933;-80
2021/05/14 11:24:37;;;;;;;;;;;22.70;46.30;;;;;;4747278;30;21229;-85
2021/05/14 11:27:08;;;;;;;;;;;22.70;45.80;;;;;;4756903;30;19940;-84
2021/05/14 11:29:36;;;;;;;;;;;22.70;45.80;;;;;;4765918;30;19941;-85
2021/05/14 11:32:18;;;;;;;;;;;22.80;43.80;;;;;;4767028;30;20273;-79
2021/05/14 11:34:54;;;;;;;;;;;22.90;43.80;;;;;;4760917;30;19930;-78
2021/05/14 11:37:22;;;;;;;;;;;22.90;45.30;;;;;;4759924;30;21334;-79
2021/05/14 11:39:48;;;;;;;;;;;22.80;44.60;;;;;;4759999;30;20187;-80
2021/05/14 11:42:22;;;;;;;;;;;22.90;43.10;;;;;;4753236;30;19944;-79
2021/05/14 11:45:00;;;;;;;;;;;23.00;40.90;;;;;;4754205;30;21711;-80
2021/05/14 11:47:27;;;;;;;;;;;23.00;43.40;;;;;;4758523;29;19929;-80
2021/05/14 11:49:54;;;;;;;;;;;23.00;43.70;;;;;;4755393;30;19938;-80
2021/05/14 11:52:31;;;;;;;;;;;23.00;43.00;;;;;;4758965;30;20057;-80
2021/05/14 11:55:05;;;;;;;;;;;23.10;43.40;;;;;;4743359;30;20143;-80
2021/05/14 11:57:32;;;;;;;;;;;23.00;43.80;;;;;;4754684;30;20620;-80
2021/05/14 11:59:59;;;;;;;;;;;23.10;43.90;;;;;;4753713;30;20342;-80
2021/05/14 12:02:52;;;;;;;;;;;23.10;43.30;;;;;;4756230;30;19937;-81
2021/05/14 12:05:22;;;;;;;;;;;23.10;43.10;;;;;;4754600;30;19931;-87
2021/05/14 12:07:49;;;;;;;;;;;23.10;44.00;;;;;;4761265;30;20112;-84
2021/05/14 12:10:16;;;;;;;;;;;23.10;43.60;;;;;;4745035;30;19937;-82
2021/05/14 12:12:44;;;;;;;;;;;23.20;43.80;;;;;;4758709;30;20355;-81
2021/05/14 12:15:11;;;;;;;;;;;23.10;43.50;;;;;;4744860;30;20258;-83
2021/05/14 12:17:38;;;;;;;;;;;23.20;42.60;;;;;;4746195;30;19934;-80
2021/05/14 12:20:31;;;;;;;;;;;23.20;43.90;;;;;;4756807;30;19936;-80
2021/05/14 12:23:00;;;;;;;;;;;23.20;43.10;;;;;;4729588;30;20278;-80
2021/05/14 12:25:48;;;;;;;;;;;23.30;44.60;;;;;;4754202;30;19930;-81
2021/05/14 12:28:28;;;;;;;;;;;23.30;44.30;;;;;;4758818;30;19937;-81
2021/05/14 12:30:55;;;;;;;;;;;23.30;43.70;;;;;;4757967;30;20358;-81
2021/05/14 12:33:22;;;;;;;;;;;23.30;43.80;;;;;;4758490;30;19938;-81
2021/05/14 12:35:54;;;;;;;;;;;23.20;42.40;;;;;;4756197;30;20411;-81
2021/05/14 12:38:36;;;;;;;;;;;23.20;39.40;;;;;;4747652;30;20651;-82
2021/05/14 12:41:03;;;;;;;;;;;23.30;39.70;;;;;;4737231;30;19930;-81
2021/05/14 12:43:29;;;;;;;;;;;23.30;41.40;;;;;;4744330;30;19934;-83
2021/05/14 12:46:05;;;;;;;;;;;23.30;42.20;;;;;;4761024;30;19930;-81
2021/05/14 12:48:32;;;;;;;;;;;23.30;43.30;;;;;;4752120;30;20569;-83
2021/05/14 12:51:01;;;;;;;;;;;23.30;43.30;;;;;;4762096;30;19937;-81
2021/05/14 12:53:28;;;;;;;;;;;23.30;42.90;;;;;;4762389;30;19930;-80
2021/05/14 12:55:54;;;;;;;;;;;23.30;43.50;;;;;;4763496;30;19937;-80
2021/05/14 12:58:21;;;;;;;;;;;23.30;43.50;;;;;;4759181;30;19930;-83
2021/05/14 13:00:48;;;;;;;;;;;23.30;42.80;;;;;;4764271;30;20114;-87
2021/05/14 13:03:24;;;;;;;;;;;23.20;42.70;;;;;;4764445;30;19936;-85
2021/05/14 13:05:52;;;;;;;;;;;23.20;41.40;;;;;;4754986;30;20222;-85
2021/05/14 13:08:39;;;;;;;;;;;23.30;39.60;;;;;;4729911;30;20287;-87
2021/05/14 13:11:12;;;;;;;;;;;23.30;43.00;;;;;;4765236;30;20589;-87
2021/05/14 13:13:39;;;;;;;;;;;23.30;41.40;;;;;;4755754;30;19941;-86
2021/05/14 13:16:06;;;;;;;;;;;23.30;41.30;;;;;;4763566;30;19930;-85
2021/05/14 13:18:34;;;;;;;;;;;23.40;43.20;;;;;;4759274;30;20003;-87
2021/05/14 13:21:01;;;;;;;;;;;23.30;41.50;;;;;;4747651;30;19951;-87
2021/05/14 13:23:34;;;;;;;;;;;23.30;40.60;;;;;;4759159;30;19999;-87
2021/05/14 13:26:01;;;;;;;;;;;23.20;41.30;;;;;;4764951;30;19945;-85
2021/05/14 13:28:29;;;;;;;;;;;23.20;41.90;;;;;;4758111;30;21216;-82
2021/05/14 13:30:55;;;;;;;;;;;23.20;42.10;;;;;;4761123;30;19930;-82
2021/05/14 13:33:22;;;;;;;;;;;23.20;42.40;;;;;;4756631;30;19960;-81
2021/05/14 13:35:49;;;;;;;;;;;23.20;42.40;;;;;;4758496;30;21543;-83
2021/05/14 13:38:15;;;;;;;;;;;23.20;42.40;;;;;;4758495;30;19937;-83
2021/05/14 13:40:42;;;;;;;;;;;23.10;42.30;;;;;;4758487;30;19934;-83
2021/05/14 13:43:09;;;;;;;;;;;23.10;42.00;;;;;;4758960;30;20396;-82
2021/05/14 13:45:36;;;;;;;;;;;23.10;41.80;;;;;;4755109;30;19937;-80
2021/05/14 13:48:04;;;;;;;;;;;23.10;41.90;;;;;;4757762;30;19977;-80
2021/05/14 13:50:31;;;;;;;;;;;23.10;41.90;;;;;;4756618;30;20333;-81
2021/05/14 13:52:58;;;;;;;;;;;23.10;41.90;;;;;;4757461;30;19988;-81
2021/05/14 13:55:25;;;;;;;;;;;23.10;42.00;;;;;;4759822;30;19930;-80
2021/05/14 13:57:52;;;;;;;;;;;23.10;42.00;;;;;;4757425;30;19934;-81
2021/05/14 14:00:20;;;;;;;;;;;23.10;41.80;;;;;;4760859;30;20179;-82
2021/05/14 14:02:47;;;;;;;;;;;23.10;41.80;;;;;;4742576;30;20005;-84
2021/05/14 14:05:13;;;;;;;;;;;23.10;41.60;;;;;;4757679;30;19949;-81
2021/05/14 14:07:40;;;;;;;;;;;23.10;41.70;;;;;;4756890;30;20380;-83
2021/05/14 14:10:15;;;;;;;;;;;23.00;41.70;;;;;;4748752;30;20253;-85
2021/05/14 14:12:43;;;;;;;;;;;23.00;41.80;;;;;;4739611;30;20333;-82
2021/05/14 14:15:10;;;;;;;;;;;23.00;42.20;;;;;;4758652;30;19930;-85
2021/05/14 14:17:37;;;;;;;;;;;23.00;42.00;;;;;;4760620;30;19934;-80
2021/05/14 14:20:08;;;;;;;;;;;23.00;42.00;;;;;;4761029;30;20456;-86
2021/05/14 14:22:35;;;;;;;;;;;22.90;42.00;;;;;;4757996;30;19938;-85
2021/05/14 14:25:02;;;;;;;;;;;22.90;42.20;;;;;;4741392;30;19941;-85
2021/05/14 14:27:32;;;;;;;;;;;22.90;42.20;;;;;;4742007;30;19945;-82
2021/05/14 14:29:59;;;;;;;;;;;22.90;42.20;;;;;;4759713;30;19960;-82
2021/05/14 14:32:25;;;;;;;;;;;22.80;42.50;;;;;;4763335;30;20172;-87
2021/05/14 14:37:56;;;;;;;;;;;22.80;42.60;;;;;;4716764;30;21789;-86
2021/05/14 14:40:23;;;;;;;;;;;22.70;42.70;;;;;;4745149;30;19978;-85